createdAt,value
2022-11-27T00:03:00.195Z,98034.87
2022-11-27T00:13:04.379Z,98035.45
2022-11-27T00:23:08.228Z,98037.27
2022-11-27T00:33:12.439Z,98038.48
2022-11-27T00:43:16.066Z,98040.91
2022-11-27T00:53:19.962Z,98036.71
2022-11-27T01:03:24.648Z,98035.51
2022-11-27T01:13:31.653Z,98029.96
2022-11-27T01:23:35.477Z,98021.38
2022-11-27T01:33:40.079Z,98022.68
2022-11-27T01:43:53.213Z,98026.23
2022-11-27T01:53:57.992Z,98021.77
2022-11-27T02:04:02.715Z,98020.11
2022-11-27T02:14:18.455Z,98023.51
2022-11-27T02:24:59.769Z,98027.89
2022-11-27T02:35:47.439Z,98026.56
2022-11-27T02:45:53.052Z,98029.39
2022-11-27T02:55:59.719Z,98033.14
2022-11-27T03:06:10.420Z,98040.46
2022-11-27T03:16:19.904Z,98044.88
2022-11-27T03:26:23.978Z,98049.64
2022-11-27T03:36:27.536Z,98052.14
2022-11-27T03:47:07.797Z,98053.73
2022-11-27T03:57:44.935Z,98056.51
2022-11-27T04:07:48.668Z,98059.91
2022-11-27T04:17:52.301Z,98059.37
2022-11-27T04:27:56.467Z,98054.30
2022-11-27T04:38:00.202Z,98049.75
2022-11-27T04:48:04.850Z,98050.55
2022-11-27T04:58:08.642Z,98050.77
2022-11-27T05:08:12.599Z,98050.09
2022-11-27T05:18:16.328Z,98047.28
2022-11-27T05:28:26.287Z,98044.15
2022-11-27T05:38:30.629Z,98044.95
2022-11-27T05:48:35.848Z,98056.14
2022-11-27T05:58:40.415Z,98064.64
2022-11-27T06:08:45.186Z,98065.92
2022-11-27T06:18:53.700Z,98064.02
2022-11-27T06:29:02.130Z,98058.82
2022-11-27T06:39:07.056Z,98063.38
2022-11-27T06:49:10.903Z,98066.94
2022-11-27T06:59:17.747Z,98066.48
2022-11-27T07:09:21.609Z,98069.98
2022-11-27T07:19:25.581Z,98062.45
2022-11-27T07:29:29.444Z,98052.25
2022-11-27T07:40:00.306Z,98051.55
2022-11-27T07:49:58.891Z,98049.14
2022-11-27T08:00:02.954Z,98051.05
2022-11-27T08:10:08.795Z,98055.40
2022-11-27T08:20:12.834Z,98050.02
2022-11-27T08:30:16.914Z,98056.30
2022-11-27T08:40:21.826Z,98063.00
2022-11-27T08:50:26.512Z,98049.09
2022-11-27T09:00:33.075Z,98040.89
2022-11-27T09:10:38.181Z,98048.44
2022-11-27T09:20:42.507Z,98044.02
2022-11-27T09:30:47.084Z,98035.70
2022-11-27T09:40:53.569Z,98032.50
2022-11-27T09:50:58.204Z,98038.61
2022-11-27T10:01:02.590Z,98030.52
2022-11-27T10:11:14.238Z,98013.56
2022-11-27T10:21:24.439Z,98005.02
2022-11-27T10:31:37.496Z,98000.94
2022-11-27T10:41:57.579Z,98002.14
2022-11-27T10:52:01.430Z,97997.08
2022-11-27T11:02:07.989Z,97989.45
2022-11-27T11:12:21.669Z,97975.06
2022-11-27T11:22:25.937Z,97970.73
2022-11-27T11:32:40.922Z,97949.92
2022-11-27T11:43:03.016Z,97957.55
2022-11-27T11:53:13.923Z,97954.63
2022-11-27T12:03:51.723Z,97947.29
2022-11-27T12:14:21.571Z,97940.05
2022-11-27T12:24:25.564Z,97935.77
2022-11-27T12:34:55.567Z,97934.41
2022-11-27T12:45:09.362Z,97928.33
2022-11-27T12:55:22.087Z,97921.21
2022-11-27T13:05:30.881Z,97925.95
2022-11-27T13:15:40.085Z,97924.58
2022-11-27T13:25:50.579Z,97912.89
2022-11-27T13:35:56.006Z,97914.77
2022-11-27T13:46:21.401Z,97912.46
2022-11-27T13:56:31.810Z,97906.55
2022-11-27T14:06:37.651Z,97906.10
2022-11-27T14:16:58.873Z,97902.52
2022-11-27T14:27:16.922Z,97903.25
2022-11-27T14:37:26.702Z,97902.24
2022-11-27T14:47:31.415Z,97907.64
2022-11-27T14:57:36.732Z,97902.80
2022-11-27T15:07:47.998Z,97894.04
2022-11-27T15:18:21.419Z,97897.52
2022-11-27T15:28:37.281Z,97886.73
2022-11-27T15:38:42.618Z,97892.02
2022-11-27T15:48:47.286Z,97888.09
2022-11-27T15:58:52.156Z,97881.78
2022-11-27T16:09:02.038Z,97880.64
2022-11-27T16:19:07.298Z,97879.94
2022-11-27T16:29:11.767Z,97877.28
2022-11-27T16:39:18.983Z,97876.34
2022-11-27T16:49:23.719Z,97864.96
2022-11-27T16:59:27.900Z,97855.96
2022-11-27T17:09:32.906Z,97857.26
2022-11-27T17:19:37.515Z,97861.25
2022-11-27T17:29:43.262Z,97849.81
2022-11-27T17:39:49.422Z,97850.13
2022-11-27T17:49:54.849Z,97831.57
2022-11-27T18:00:00.186Z,97824.83
2022-11-27T18:10:06.365Z,97821.48
2022-11-27T18:20:11.683Z,97817.34
2022-11-27T18:30:17.388Z,97798.61
2022-11-27T18:40:22.416Z,97787.20
2022-11-27T18:50:30.048Z,97775.11
2022-11-27T19:00:34.838Z,97765.60
2022-11-27T19:10:39.927Z,97758.89
2022-11-27T19:20:45.662Z,97763.75
2022-11-27T19:30:51.160Z,97774.38
2022-11-27T19:40:56.970Z,97776.59
2022-11-27T19:51:03.199Z,97777.48
2022-11-27T20:01:17.310Z,97778.98
2022-11-27T20:11:32.673Z,97764.17
2022-11-27T20:21:41.399Z,97763.05
2022-11-27T20:31:47.130Z,97753.80
2022-11-27T20:41:54.357Z,97738.58
2022-11-27T20:52:04.334Z,97737.51
2022-11-27T21:02:13.526Z,97726.80
2022-11-27T21:12:18.850Z,97713.92
2022-11-27T21:22:22.929Z,97713.71
2022-11-27T21:32:27.783Z,97721.52
2022-11-27T21:42:33.338Z,97718.73
2022-11-27T21:52:37.502Z,97711.48
2022-11-27T22:02:45.757Z,97713.69
2022-11-27T22:12:49.742Z,97708.23
2022-11-27T22:22:54.156Z,97705.90
2022-11-27T22:32:58.200Z,97694.58
2022-11-27T22:43:02.399Z,97683.71
2022-11-27T22:53:06.142Z,97677.24
2022-11-27T23:03:10.584Z,97663.94
2022-11-27T23:13:15.380Z,97653.55
2022-11-27T23:23:19.011Z,97635.31
2022-11-27T23:33:23.146Z,97626.09
2022-11-27T23:43:27.014Z,97616.55
2022-11-27T23:53:30.717Z,97616.90
